createdAt,value
2022-10-14T00:00:27.100Z,12.07
2022-10-14T00:02:54.802Z,12.12
2022-10-14T00:05:22.535Z,12.18
2022-10-14T00:07:50.464Z,12.23
2022-10-14T00:10:18.360Z,12.32
2022-10-14T00:12:47.796Z,12.26
2022-10-14T00:15:15.514Z,12.20
2022-10-14T00:17:43.448Z,12.21
2022-10-14T00:20:11.793Z,12.20
2022-10-14T00:22:39.642Z,12.21
2022-10-14T00:25:08.311Z,12.19
2022-10-14T00:27:36.607Z,12.27
2022-10-14T00:30:06.416Z,12.19
2022-10-14T00:32:34.575Z,12.17
2022-10-14T00:35:02.787Z,12.19
2022-10-14T00:37:30.702Z,12.21
2022-10-14T00:39:58.630Z,12.17
2022-10-14T00:42:26.386Z,12.11
2022-10-14T00:45:07.733Z,12.14
2022-10-14T00:47:35.722Z,12.11
2022-10-14T00:50:03.964Z,12.08
2022-10-14T00:52:31.781Z,12.10
2022-10-14T00:55:02.242Z,12.21
2022-10-14T00:57:30.552Z,12.18
2022-10-14T01:00:02.304Z,12.18
2022-10-14T01:02:31.674Z,12.24
2022-10-14T01:05:00.474Z,12.25
2022-10-14T01:07:34.695Z,12.22
2022-10-14T01:10:07.920Z,12.27
2022-10-14T01:12:42.287Z,12.30
2022-10-14T01:15:15.920Z,12.32
2022-10-14T01:17:48.371Z,12.27
2022-10-14T01:20:27.161Z,12.32
2022-10-14T01:23:02.319Z,12.37
2022-10-14T01:25:34.171Z,12.36
2022-10-14T01:28:09.334Z,12.27
2022-10-14T01:30:43.386Z,12.26
2022-10-14T01:33:13.861Z,12.26
2022-10-14T01:35:45.199Z,12.30
2022-10-14T01:38:15.816Z,12.26
2022-10-14T01:40:51.175Z,12.25
2022-10-14T01:43:20.454Z,12.29
2022-10-14T01:45:51.184Z,12.25
2022-10-14T01:48:20.813Z,12.25
2022-10-14T01:50:51.042Z,12.20
2022-10-14T01:53:20.600Z,12.19
2022-10-14T01:55:49.014Z,12.19
2022-10-14T01:58:18.685Z,12.19
2022-10-14T02:00:47.785Z,12.19
2022-10-14T02:03:17.012Z,12.17
2022-10-14T02:05:47.611Z,12.16
2022-10-14T02:08:21.845Z,12.19
2022-10-14T02:11:02.137Z,12.18
2022-10-14T02:13:38.271Z,12.16
2022-10-14T02:16:13.492Z,12.20
2022-10-14T02:18:48.264Z,12.17
2022-10-14T02:21:19.391Z,12.27
2022-10-14T02:23:50.400Z,12.20
2022-10-14T02:26:19.326Z,12.19
2022-10-14T02:28:48.170Z,12.21
2022-10-14T02:31:18.116Z,12.29
2022-10-14T02:33:50.241Z,12.31
2022-10-14T02:36:20.890Z,12.26
2022-10-14T02:38:49.480Z,12.28
2022-10-14T02:41:18.898Z,12.22
2022-10-14T02:43:47.119Z,12.19
2022-10-14T02:46:14.983Z,12.20
2022-10-14T02:48:42.700Z,12.16
2022-10-14T02:51:11.870Z,12.14
2022-10-14T02:53:39.558Z,12.18
2022-10-14T02:56:07.792Z,12.20
2022-10-14T02:58:35.478Z,12.17
2022-10-14T03:01:03.218Z,12.17
2022-10-14T03:03:31.135Z,12.20
2022-10-14T03:06:01.003Z,12.21
2022-10-14T03:08:30.798Z,12.27
2022-10-14T03:10:58.925Z,12.26
2022-10-14T03:13:26.617Z,12.24
2022-10-14T03:15:54.519Z,12.22
2022-10-14T03:18:22.539Z,12.23
2022-10-14T03:20:50.248Z,12.23
2022-10-14T03:23:17.995Z,12.26
2022-10-14T03:25:47.586Z,12.26
2022-10-14T03:28:15.559Z,12.31
2022-10-14T03:30:43.391Z,12.27
2022-10-14T03:33:14.345Z,12.27
2022-10-14T03:35:42.985Z,12.26
2022-10-14T03:38:10.734Z,12.24
2022-10-14T03:40:38.660Z,12.26
2022-10-14T03:43:07.710Z,12.24
2022-10-14T03:45:35.477Z,12.25
2022-10-14T03:48:03.369Z,12.33
2022-10-14T03:50:31.472Z,12.27
2022-10-14T03:52:59.170Z,12.30
2022-10-14T03:55:26.943Z,12.22
2022-10-14T03:57:54.823Z,12.22
2022-10-14T04:00:24.151Z,12.18
2022-10-14T04:02:51.845Z,12.09
2022-10-14T04:05:19.568Z,12.07
2022-10-14T04:07:48.149Z,12.06
2022-10-14T04:10:16.024Z,12.05
2022-10-14T04:12:44.159Z,12.06
2022-10-14T04:15:12.346Z,12.07
2022-10-14T04:17:41.376Z,12.02
2022-10-14T04:20:09.436Z,11.98
2022-10-14T04:22:37.244Z,12.01
2022-10-14T04:25:05.423Z,12.04
2022-10-14T04:27:33.165Z,12.03
2022-10-14T04:30:00.848Z,12.06
2022-10-14T04:32:28.623Z,11.98
2022-10-14T04:34:57.688Z,12.02
2022-10-14T04:37:25.927Z,12.00
2022-10-14T04:39:53.618Z,11.98
2022-10-14T04:42:21.508Z,12.00
2022-10-14T04:44:50.088Z,12.01
2022-10-14T04:47:17.777Z,12.02
2022-10-14T04:49:45.759Z,12.08
2022-10-14T04:52:14.842Z,12.05
2022-10-14T04:54:42.579Z,12.03
2022-10-14T04:57:11.429Z,12.06
2022-10-14T04:59:39.157Z,12.02
2022-10-14T05:02:07.082Z,12.00
2022-10-14T05:04:34.924Z,12.07
2022-10-14T05:07:02.697Z,12.03
2022-10-14T05:09:31.765Z,12.03
2022-10-14T05:11:59.497Z,12.01
2022-10-14T05:14:27.369Z,12.05
2022-10-14T05:16:55.081Z,12.03
2022-10-14T05:19:23.026Z,12.06
2022-10-14T05:21:50.776Z,12.08
2022-10-14T05:24:18.825Z,12.05
2022-10-14T05:26:48.559Z,12.08
2022-10-14T05:29:16.591Z,12.07
2022-10-14T05:31:44.327Z,12.02
2022-10-14T05:34:12.499Z,11.99
2022-10-14T05:36:42.243Z,12.02
2022-10-14T05:39:11.421Z,11.99
2022-10-14T05:41:39.228Z,12.05
2022-10-14T05:44:08.353Z,12.04
2022-10-14T05:46:36.259Z,12.08
2022-10-14T05:49:05.909Z,12.16
2022-10-14T05:51:33.823Z,12.07
2022-10-14T05:54:01.656Z,12.05
2022-10-14T05:56:29.470Z,12.03
2022-10-14T05:58:57.495Z,12.03
2022-10-14T06:01:26.674Z,12.07
2022-10-14T06:03:54.436Z,12.16
2022-10-14T06:06:26.686Z,12.19
2022-10-14T06:08:57.051Z,12.15
2022-10-14T06:11:25.000Z,12.22
2022-10-14T06:13:53.718Z,12.18
2022-10-14T06:16:21.457Z,12.20
2022-10-14T06:18:54.260Z,12.20
2022-10-14T06:21:22.614Z,12.20
2022-10-14T06:23:50.403Z,12.22
2022-10-14T06:26:18.222Z,12.22
2022-10-14T06:28:46.285Z,12.23
2022-10-14T06:31:14.188Z,12.32
2022-10-14T06:33:43.485Z,12.36
2022-10-14T06:36:12.862Z,12.38
2022-10-14T06:38:40.608Z,12.36
2022-10-14T06:41:08.424Z,12.32
2022-10-14T06:43:36.168Z,12.35
2022-10-14T06:46:04.617Z,12.38
2022-10-14T06:48:32.611Z,12.38
2022-10-14T06:51:00.916Z,12.36
2022-10-14T06:53:30.448Z,12.38
2022-10-14T06:55:58.975Z,12.54
2022-10-14T06:58:26.893Z,12.52
2022-10-14T07:00:54.691Z,12.46
2022-10-14T07:03:23.374Z,12.42
2022-10-14T07:05:51.595Z,12.45
2022-10-14T07:08:19.882Z,12.57
2022-10-14T07:10:49.253Z,12.64
2022-10-14T07:13:17.003Z,12.65
2022-10-14T07:15:48.229Z,12.64
2022-10-14T07:18:16.214Z,12.71
2022-10-14T07:20:44.046Z,12.74
2022-10-14T07:23:12.212Z,12.79
2022-10-14T07:25:39.985Z,12.86
2022-10-14T07:28:09.394Z,12.88
2022-10-14T07:30:37.603Z,12.86
2022-10-14T07:33:05.498Z,12.95
2022-10-14T07:35:33.238Z,13.04
2022-10-14T07:38:02.016Z,13.17
2022-10-14T07:40:29.994Z,13.20
2022-10-14T07:42:57.806Z,13.28
2022-10-14T07:45:27.029Z,13.26
2022-10-14T07:47:54.849Z,13.32
2022-10-14T07:50:22.914Z,13.37
2022-10-14T07:52:51.042Z,13.42
2022-10-14T07:55:18.842Z,13.36
2022-10-14T07:57:46.611Z,13.44
2022-10-14T08:00:14.496Z,13.55
2022-10-14T08:02:43.644Z,13.66
2022-10-14T08:05:38.230Z,13.76
2022-10-14T08:07:59.412Z,13.99
2022-10-14T08:10:27.270Z,14.03
2022-10-14T08:12:55.067Z,14.14
2022-10-14T08:15:22.853Z,14.34
2022-10-14T08:17:52.790Z,14.38
2022-10-14T08:22:49.442Z,14.53
2022-10-14T08:25:17.281Z,14.54
2022-10-14T08:27:45.099Z,14.52
2022-10-14T08:30:12.931Z,14.67
2022-10-14T08:32:40.925Z,14.53
2022-10-14T08:35:11.265Z,14.46
2022-10-14T08:37:39.076Z,14.45
2022-10-14T08:40:07.666Z,14.47
2022-10-14T08:42:39.203Z,14.53
2022-10-14T08:45:11.119Z,14.65
2022-10-14T08:47:42.102Z,14.75
2022-10-14T08:50:20.595Z,14.81
2022-10-14T08:52:51.166Z,14.85
2022-10-14T08:55:22.869Z,14.93
2022-10-14T08:57:54.948Z,14.98
2022-10-14T09:00:23.123Z,14.94
2022-10-14T09:02:52.028Z,14.84
2022-10-14T09:05:22.696Z,14.65
2022-10-14T09:10:27.739Z,14.73
2022-10-14T09:12:57.238Z,14.65
2022-10-14T09:15:28.520Z,14.65
2022-10-14T09:18:01.743Z,14.78
2022-10-14T09:20:31.350Z,14.96
2022-10-14T09:23:06.303Z,15.31
2022-10-14T09:25:35.638Z,15.63
2022-10-14T09:28:03.803Z,15.87
2022-10-14T09:30:36.636Z,15.93
2022-10-14T09:33:05.387Z,16.26
2022-10-14T09:35:35.750Z,16.58
2022-10-14T09:38:03.468Z,16.51
2022-10-14T09:40:33.535Z,16.27
2022-10-14T09:43:04.002Z,16.34
2022-10-14T09:45:46.899Z,16.40
2022-10-14T09:48:16.310Z,16.28
2022-10-14T09:50:50.724Z,15.92
2022-10-14T09:53:21.553Z,15.90
2022-10-14T09:55:50.151Z,15.89
2022-10-14T09:58:19.615Z,16.03
2022-10-14T10:00:47.541Z,16.05
2022-10-14T10:03:25.617Z,16.12
2022-10-14T10:06:01.783Z,16.21
2022-10-14T10:08:29.669Z,16.28
2022-10-14T10:11:03.727Z,16.28
2022-10-14T10:13:39.308Z,16.26
2022-10-14T10:16:08.781Z,16.52
2022-10-14T10:18:36.575Z,17.02
2022-10-14T10:21:07.594Z,17.46
2022-10-14T10:23:36.547Z,17.47
2022-10-14T10:26:15.510Z,17.05
2022-10-14T10:28:47.270Z,17.19
2022-10-14T10:31:22.250Z,16.98
2022-10-14T10:33:55.695Z,17.14
2022-10-14T10:36:30.045Z,17.01
2022-10-14T10:38:59.722Z,17.38
2022-10-14T10:41:44.433Z,17.61
2022-10-14T10:44:28.739Z,17.92
2022-10-14T10:47:03.973Z,17.79
2022-10-14T10:49:38.830Z,17.44
2022-10-14T10:52:20.345Z,17.25
2022-10-14T10:54:53.290Z,17.30
2022-10-14T10:57:30.132Z,17.25
2022-10-14T11:00:02.668Z,16.81
2022-10-14T11:03:00.898Z,16.75
2022-10-14T11:05:36.800Z,16.76
2022-10-14T11:08:28.527Z,16.58
2022-10-14T11:11:30.945Z,16.69
2022-10-14T11:14:04.353Z,17.07
2022-10-14T11:16:36.007Z,17.29
2022-10-14T11:19:10.967Z,17.21
2022-10-14T11:21:44.594Z,16.98
2022-10-14T11:24:22.639Z,16.91
2022-10-14T11:26:58.698Z,16.63
2022-10-14T11:29:38.543Z,16.40
2022-10-14T11:32:10.911Z,16.33
2022-10-14T11:34:43.726Z,16.28
2022-10-14T11:37:21.226Z,16.34
2022-10-14T11:39:55.974Z,16.33
2022-10-14T11:42:28.755Z,16.21
2022-10-14T11:45:02.681Z,16.20
2022-10-14T11:47:33.559Z,16.18
2022-10-14T11:50:03.933Z,16.11
2022-10-14T11:52:33.647Z,16.06
2022-10-14T11:55:09.658Z,16.11
2022-10-14T11:57:42.947Z,16.01
2022-10-14T12:00:29.609Z,15.99
2022-10-14T12:03:03.952Z,15.91
2022-10-14T12:05:36.923Z,15.96
2022-10-14T12:08:08.873Z,16.05
2022-10-14T12:10:40.105Z,16.04
2022-10-14T12:13:11.778Z,16.05
2022-10-14T12:15:42.618Z,16.15
2022-10-14T12:18:12.491Z,16.19
2022-10-14T12:20:44.825Z,15.95
2022-10-14T12:23:15.957Z,15.82
2022-10-14T12:25:49.903Z,15.90
2022-10-14T12:28:19.600Z,15.96
2022-10-14T12:30:48.167Z,15.75
2022-10-14T12:33:22.709Z,15.39
2022-10-14T12:35:59.131Z,15.14
2022-10-14T12:38:27.799Z,14.93
2022-10-14T12:41:18.563Z,14.86
2022-10-14T12:44:00.156Z,14.83
2022-10-14T12:46:28.302Z,14.79
2022-10-14T12:48:56.183Z,14.75
2022-10-14T12:51:24.917Z,14.83
2022-10-14T12:53:57.989Z,14.79
2022-10-14T12:56:30.044Z,14.75
2022-10-14T12:59:01.138Z,14.78
2022-10-14T13:01:33.834Z,14.73
2022-10-14T13:04:07.447Z,14.73
2022-10-14T13:06:37.788Z,14.67
2022-10-14T13:09:23.958Z,14.65
2022-10-14T13:12:06.715Z,14.65
2022-10-14T13:14:54.639Z,14.57
2022-10-14T13:17:30.926Z,14.51
2022-10-14T13:19:58.820Z,14.43
2022-10-14T13:22:40.334Z,14.37
2022-10-14T13:25:19.022Z,14.40
2022-10-14T13:27:57.049Z,14.32
2022-10-14T13:30:33.715Z,14.35
2022-10-14T13:33:06.356Z,14.41
2022-10-14T13:35:38.857Z,14.40
2022-10-14T13:38:08.084Z,14.46
2022-10-14T13:40:37.048Z,14.57
2022-10-14T13:43:07.924Z,14.57
2022-10-14T13:45:39.730Z,14.54
2022-10-14T13:48:14.054Z,14.43
2022-10-14T13:50:42.865Z,14.40
2022-10-14T13:53:15.439Z,14.36
2022-10-14T13:55:43.958Z,14.29
2022-10-14T13:58:13.933Z,14.44
2022-10-14T14:00:43.654Z,14.42
2022-10-14T14:03:16.708Z,14.36
2022-10-14T14:05:44.829Z,14.41
2022-10-14T14:11:16.858Z,14.57
2022-10-14T14:13:53.230Z,14.54
2022-10-14T14:16:25.685Z,14.42
2022-10-14T14:19:04.354Z,14.49
2022-10-14T14:21:37.718Z,14.43
2022-10-14T14:24:11.682Z,14.41
2022-10-14T14:26:40.479Z,14.42
2022-10-14T14:29:16.002Z,14.41
2022-10-14T14:32:05.538Z,14.36
2022-10-14T14:37:56.458Z,14.18
2022-10-14T14:40:25.791Z,14.16
2022-10-14T14:42:54.763Z,14.23
2022-10-14T14:45:25.409Z,14.32
2022-10-14T14:47:55.610Z,14.26
2022-10-14T14:50:31.415Z,14.22
2022-10-14T14:53:03.308Z,14.20
2022-10-14T14:55:35.444Z,14.24
2022-10-14T14:58:04.699Z,14.36
2022-10-14T15:00:32.592Z,14.35
2022-10-14T15:03:02.419Z,14.33
2022-10-14T15:05:31.906Z,14.32
2022-10-14T15:07:59.692Z,14.33
2022-10-14T15:10:29.463Z,14.31
2022-10-14T15:12:58.397Z,14.26
2022-10-14T15:15:27.604Z,14.22
2022-10-14T15:18:13.075Z,14.21
2022-10-14T15:20:43.434Z,14.19
2022-10-14T15:23:29.874Z,14.17
2022-10-14T15:26:00.656Z,14.13
2022-10-14T15:28:29.862Z,14.06
2022-10-14T15:31:02.958Z,14.00
2022-10-14T15:33:33.605Z,13.92
2022-10-14T15:36:03.527Z,13.95
2022-10-14T15:41:05.525Z,13.85
2022-10-14T15:43:34.648Z,13.87
2022-10-14T15:46:20.051Z,13.93
2022-10-14T15:48:49.816Z,13.92
2022-10-14T15:51:20.026Z,14.00
2022-10-14T15:53:48.982Z,13.96
2022-10-14T15:56:17.011Z,13.99
2022-10-14T15:58:44.789Z,13.96
2022-10-14T16:01:16.919Z,13.94
2022-10-14T16:03:44.851Z,13.97
2022-10-14T16:06:14.465Z,13.97
2022-10-14T16:08:43.586Z,13.92
2022-10-14T16:11:17.924Z,14.00
2022-10-14T16:13:45.846Z,14.01
2022-10-14T16:16:13.974Z,13.98
2022-10-14T16:18:41.697Z,13.97
2022-10-14T16:21:11.026Z,13.97
2022-10-14T16:23:38.940Z,13.92
2022-10-14T16:26:08.695Z,13.96
2022-10-14T16:28:40.812Z,13.98
2022-10-14T16:31:11.194Z,13.90
2022-10-14T16:33:41.756Z,13.91
2022-10-14T16:36:14.677Z,13.95
2022-10-14T16:38:42.526Z,13.90
2022-10-14T16:41:12.335Z,13.97
2022-10-14T16:43:40.210Z,13.91
2022-10-14T16:46:10.525Z,13.90
2022-10-14T16:48:41.265Z,13.89
2022-10-14T16:51:09.036Z,13.83
2022-10-14T16:53:44.752Z,13.93
2022-10-14T16:56:32.693Z,13.95
2022-10-14T16:59:01.838Z,13.91
2022-10-14T17:01:30.118Z,13.90
2022-10-14T17:03:58.268Z,13.88
2022-10-14T17:06:26.758Z,13.90
2022-10-14T17:08:54.662Z,13.85
2022-10-14T17:11:24.704Z,13.87
2022-10-14T17:13:52.665Z,13.93
2022-10-14T17:16:20.581Z,13.86
2022-10-14T17:21:16.950Z,13.85
2022-10-14T17:23:45.539Z,13.87
2022-10-14T17:26:14.916Z,13.83
2022-10-14T17:28:44.183Z,13.86
2022-10-14T17:31:13.437Z,13.86
2022-10-14T17:33:41.780Z,13.91
2022-10-14T17:36:17.709Z,13.88
2022-10-14T17:38:45.619Z,13.85
2022-10-14T17:41:14.564Z,13.77
2022-10-14T17:43:45.804Z,13.81
2022-10-14T17:47:18.764Z,13.76
2022-10-14T17:49:46.638Z,13.79
2022-10-14T17:52:14.438Z,13.82
2022-10-14T17:54:42.187Z,13.78
2022-10-14T17:57:09.963Z,13.76
2022-10-14T17:59:38.076Z,13.69
2022-10-14T18:02:09.498Z,13.65
2022-10-14T18:04:38.584Z,13.62
2022-10-14T18:07:06.332Z,13.55
2022-10-14T18:09:34.597Z,13.51
2022-10-14T18:12:10.333Z,13.49
2022-10-14T18:14:38.700Z,13.38
2022-10-14T18:17:06.531Z,13.38
2022-10-14T18:19:34.942Z,13.37
2022-10-14T18:22:04.224Z,13.40
2022-10-14T18:24:32.281Z,13.30
2022-10-14T18:27:00.218Z,13.26
2022-10-14T18:29:27.972Z,13.26
2022-10-14T18:31:55.753Z,13.26
2022-10-14T18:34:25.268Z,13.26
2022-10-14T18:36:52.965Z,13.36
2022-10-14T18:39:22.421Z,13.30
2022-10-14T18:41:50.181Z,13.28
2022-10-14T18:44:18.138Z,13.27
2022-10-14T18:46:47.453Z,13.30
2022-10-14T18:49:15.312Z,13.29
2022-10-14T18:51:43.367Z,13.20
2022-10-14T18:54:13.286Z,13.13
2022-10-14T18:56:43.576Z,13.11
2022-10-14T18:59:12.233Z,13.02
2022-10-14T19:01:40.501Z,12.96
2022-10-14T19:04:09.941Z,13.00
2022-10-14T19:06:37.775Z,12.87
2022-10-14T19:09:06.485Z,12.78
2022-10-14T19:11:35.280Z,12.71
2022-10-14T19:14:05.239Z,12.69
2022-10-14T19:16:34.269Z,12.64
2022-10-14T19:19:03.930Z,12.60
2022-10-14T19:21:33.153Z,12.58
2022-10-14T19:24:02.103Z,12.57
2022-10-14T19:26:30.892Z,12.55
2022-10-14T19:28:59.250Z,12.58
2022-10-14T19:31:29.297Z,12.62
2022-10-14T19:33:57.579Z,12.59
2022-10-14T19:36:26.141Z,12.61
2022-10-14T19:39:00.032Z,12.68
2022-10-14T19:41:28.943Z,12.71
2022-10-14T19:43:58.100Z,12.66
2022-10-14T19:46:27.391Z,12.63
2022-10-14T19:48:57.489Z,12.66
2022-10-14T19:51:25.490Z,12.70
2022-10-14T19:53:55.162Z,12.72
2022-10-14T19:56:23.273Z,12.78
2022-10-14T19:58:51.586Z,12.79
2022-10-14T20:04:15.777Z,12.71
2022-10-14T20:06:44.999Z,12.72
2022-10-14T20:09:14.546Z,12.72
2022-10-14T20:11:43.687Z,12.70
2022-10-14T20:14:11.445Z,12.69
2022-10-14T20:19:22.069Z,12.68
2022-10-14T20:21:50.381Z,12.69
2022-10-14T20:24:21.911Z,12.69
2022-10-14T20:26:50.357Z,12.70
2022-10-14T20:29:18.346Z,12.70
2022-10-14T20:31:46.520Z,12.73
2022-10-14T20:34:14.501Z,12.79
2022-10-14T20:36:43.897Z,12.85
2022-10-14T20:39:12.264Z,12.86
2022-10-14T20:41:40.393Z,12.83
2022-10-14T20:44:08.282Z,12.80
2022-10-14T20:46:36.140Z,12.79
2022-10-14T20:49:04.592Z,12.77
2022-10-14T20:51:32.567Z,12.71
2022-10-14T20:54:04.238Z,12.70
2022-10-14T20:56:35.038Z,12.65
2022-10-14T20:59:04.056Z,12.61
2022-10-14T21:01:32.643Z,12.58
2022-10-14T21:04:01.469Z,12.58
2022-10-14T21:06:29.841Z,12.57
2022-10-14T21:08:58.367Z,12.54
2022-10-14T21:11:28.125Z,12.48
2022-10-14T21:13:57.140Z,12.40
2022-10-14T21:16:26.434Z,12.38
2022-10-14T21:18:57.881Z,12.31
2022-10-14T21:21:27.025Z,12.30
2022-10-14T21:23:55.167Z,12.26
2022-10-14T21:26:23.533Z,12.29
2022-10-14T21:28:52.959Z,12.31
2022-10-14T21:31:21.953Z,12.31
2022-10-14T21:33:54.851Z,12.32
2022-10-14T21:36:23.082Z,12.31
2022-10-14T21:38:50.911Z,12.28
2022-10-14T21:41:18.866Z,12.26
2022-10-14T21:43:46.705Z,12.25
2022-10-14T21:46:16.895Z,12.23
2022-10-14T21:48:45.962Z,12.24
2022-10-14T21:51:14.780Z,12.23
2022-10-14T21:53:43.332Z,12.25
2022-10-14T21:56:12.020Z,12.28
2022-10-14T21:58:40.233Z,12.29
2022-10-14T22:01:10.367Z,12.28
2022-10-14T22:03:40.471Z,12.33
2022-10-14T22:06:09.685Z,12.31
2022-10-14T22:08:38.890Z,12.27
2022-10-14T22:11:06.923Z,12.25
2022-10-14T22:13:34.941Z,12.21
2022-10-14T22:16:03.084Z,12.20
2022-10-14T22:18:30.973Z,12.22
2022-10-14T22:21:04.961Z,12.25
2022-10-14T22:23:33.715Z,12.25
2022-10-14T22:26:02.149Z,12.27
2022-10-14T22:28:30.960Z,12.28
2022-10-14T22:31:04.482Z,12.24
2022-10-14T22:33:32.498Z,12.24
2022-10-14T22:36:07.303Z,12.23
2022-10-14T22:38:35.430Z,12.20
2022-10-14T22:41:03.643Z,12.18
2022-10-14T22:43:31.483Z,12.19
2022-10-14T22:45:59.772Z,12.19
2022-10-14T22:48:27.552Z,12.19
2022-10-14T22:50:55.600Z,12.25
2022-10-14T22:53:24.987Z,12.28
2022-10-14T22:55:52.814Z,12.27
2022-10-14T22:58:20.661Z,12.25
2022-10-14T23:00:48.695Z,12.24
2022-10-14T23:03:16.695Z,12.19
2022-10-14T23:05:44.497Z,12.21
2022-10-14T23:08:14.637Z,12.24
2022-10-14T23:10:44.598Z,12.31
2022-10-14T23:13:12.501Z,12.36
2022-10-14T23:15:40.443Z,12.38
2022-10-14T23:18:08.228Z,12.42
2022-10-14T23:20:35.977Z,12.43
2022-10-14T23:23:03.719Z,12.45
2022-10-14T23:25:31.603Z,12.40
2022-10-14T23:28:01.000Z,12.45
2022-10-14T23:30:28.776Z,12.48
2022-10-14T23:32:56.571Z,12.51
2022-10-14T23:35:24.409Z,12.52
2022-10-14T23:37:52.221Z,12.47
2022-10-14T23:40:20.132Z,12.48
2022-10-14T23:42:47.971Z,12.50
2022-10-14T23:45:17.225Z,12.53
2022-10-14T23:47:45.115Z,12.56
2022-10-14T23:50:12.872Z,12.58
2022-10-14T23:52:40.866Z,12.58
2022-10-14T23:55:09.208Z,12.58
2022-10-14T23:57:37.137Z,12.58
